Time;durP1;ratioP1;P1;durP2;ratioP2;P2;SDS_P1;SDS_P2;PMS_P1;PMS_P2;Temp;Humidity;BMP_temperature;BMP_pressure;BME280_temperature;BME280_humidity;BME280_pressure;Samples;Min_cycle;Max_cycle;Signal;HPM_P1;HPM_P2
2023/01/16 00:00:28;;;;;;;0.90;0.90;;;;;;;;;;5027032;28;20034;-78
2023/01/16 00:02:54;;;;;;;0.90;0.90;;;;;;;;;;5029650;28;20036;-78
2023/01/16 00:05:20;;;;;;;2.55;1.60;;;;;;;;;;5026836;28;20054;-78
2023/01/16 00:07:46;;;;;;;1.13;1.02;;;;;;;;;;5027030;28;20041;-78
2023/01/16 00:10:12;;;;;;;1.95;0.90;;;;;;;;;;5023398;28;20107;-79
2023/01/16 00:12:38;;;;;;;1.67;1.40;;;;;;;;;;5018700;28;20045;-78
2023/01/16 00:15:04;;;;;;;0.90;0.90;;;5.00;91.20;;;;;;5026631;28;20017;-78
2023/01/16 00:17:30;;;;;;;0.80;0.80;;;4.60;91.40;;;;;;5026894;28;20030;-79
2023/01/16 00:19:57;;;;;;;0.90;0.90;;;;;;;;;;5026620;28;20412;-79
2023/01/16 00:22:23;;;;;;;0.70;0.70;;;;;;;;;;5027127;28;20029;-79
2023/01/16 00:24:48;;;;;;;1.20;1.20;;;4.30;93.90;;;;;;5026604;28;20029;-79
2023/01/16 00:27:14;;;;;;;0.60;0.60;;;;;;;;;;5026923;28;20029;-79
2023/01/16 00:29:40;;;;;;;0.75;0.65;;;;;;;;;;5026501;28;20068;-78
2023/01/16 00:32:06;;;;;;;1.67;1.58;;;;;;;;;;5026671;28;20041;-78
2023/01/16 00:34:32;;;;;;;0.60;0.60;;;4.40;99.10;;;;;;5025131;28;20014;-78
2023/01/16 00:36:57;;;;;;;0.60;0.60;;;4.60;99.10;;;;;;5026515;28;20065;-78
2023/01/16 00:39:23;;;;;;;0.85;0.70;;;;;;;;;;5027331;28;20057;-79
2023/01/16 00:41:49;;;;;;;0.75;0.75;;;;;;;;;;5030517;28;20048;-78
2023/01/16 00:44:16;;;;;;;8.07;2.50;;;;;;;;;;5029822;28;20075;-79
2023/01/16 00:46:41;;;;;;;0.90;0.90;;;4.90;93.40;;;;;;5030443;28;20137;-78
2023/01/16 00:49:07;;;;;;;1.15;0.85;;;;;;;;;;5029994;28;20097;-78
2023/01/16 00:51:33;;;;;;;0.60;0.60;;;;;;;;;;5029870;28;20034;-78
2023/01/16 00:53:59;;;;;;;1.23;1.23;;;;;;;;;;5030079;28;20486;-78
2023/01/16 00:56:25;;;;;;;1.83;1.40;;;4.70;96.50;;;;;;5029898;28;20035;-78
2023/01/16 00:58:51;;;;;;;0.50;0.50;;;;;;;;;;5030048;28;20091;-78
2023/01/16 01:01:16;;;;;;;3.13;0.60;;;4.60;94.00;;;;;;5030322;28;20036;-78
2023/01/16 01:03:42;;;;;;;0.98;0.90;;;5.30;98.80;;;;;;5029629;28;20048;-78
2023/01/16 01:06:11;;;;;;;0.50;0.50;;;4.70;93.50;;;;;;5029938;28;20076;-78
2023/01/16 01:08:37;;;;;;;0.50;0.50;;;;;;;;;;5017817;28;20113;-78
2023/01/16 01:11:13;;;;;;;0.82;0.60;;;4.70;94.10;;;;;;5030049;28;20068;-78
2023/01/16 01:13:40;;;;;;;2.20;1.05;;;;;;;;;;5029208;28;20541;-78
2023/01/16 01:16:06;;;;;;;1.50;1.38;;;4.60;91.10;;;;;;5029962;28;20026;-78
2023/01/16 01:18:32;;;;;;;1.48;0.60;;;4.50;94.50;;;;;;5029217;28;20108;-78
2023/01/16 01:20:58;;;;;;;0.82;0.82;;;4.40;97.10;;;;;;5029368;28;20108;-79
2023/01/16 01:23:24;;;;;;;1.17;0.77;;;;;;;;;;5029349;28;20063;-79
2023/01/16 01:25:50;;;;;;;0.55;0.55;;;;;;;;;;5029568;28;20026;-79
2023/01/16 01:28:16;;;;;;;0.50;0.50;;;;;;;;;;5029412;28;20025;-78
2023/01/16 01:30:41;;;;;;;1.75;0.95;;;4.80;93.20;;;;;;5028957;28;20112;-79
2023/01/16 01:33:09;;;;;;;1.35;1.05;;;;;;;;;;5028249;28;20121;-79
2023/01/16 01:35:35;;;;;;;1.00;0.68;;;4.10;96.00;;;;;;5028358;28;20584;-78
2023/01/16 01:38:01;;;;;;;2.20;0.98;;;4.30;94.00;;;;;;5029188;28;20108;-79
2023/01/16 01:40:27;;;;;;;3.30;0.73;;;;;;;;;;5029069;28;20101;-79
2023/01/16 01:42:53;;;;;;;1.20;1.10;;;;;;;;;;5028747;28;20034;-79
2023/01/16 01:45:26;;;;;;;0.90;0.63;;;4.50;91.30;;;;;;5028876;28;20049;-78
2023/01/16 01:48:12;;;;;;;0.60;0.60;;;4.50;95.80;;;;;;5016449;28;20362;-78
2023/01/16 01:50:52;;;;;;;2.63;0.75;;;4.50;96.40;;;;;;5023872;28;20506;-78
2023/01/16 01:53:27;;;;;;;1.38;0.65;;;4.60;90.50;;;;;;5029072;28;20029;-78
2023/01/16 01:55:55;;;;;;;6.68;0.52;;;4.60;90.40;;;;;;5028434;28;20026;-78
2023/01/16 01:58:24;;;;;;;0.70;0.70;;;4.60;90.20;;;;;;5028898;28;20026;-79
2023/01/16 02:00:54;;;;;;;0.50;0.50;;;4.40;89.70;;;;;;5023318;28;20021;-79
2023/01/16 02:03:29;;;;;;;0.68;0.68;;;4.60;95.80;;;;;;5021409;28;20029;-78
2023/01/16 02:05:58;;;;;;;1.52;1.50;;;4.60;92.90;;;;;;5028446;28;20032;-78
2023/01/16 02:08:29;;;;;;;0.50;0.50;;;4.70;89.00;;;;;;5028327;28;20690;-79
2023/01/16 02:11:09;;;;;;;1.45;1.35;;;4.90;88.20;;;;;;5028517;28;20053;-78
2023/01/16 02:13:38;;;;;;;1.50;1.40;;;5.00;87.50;;;;;;5028176;28;20044;-78
2023/01/16 02:22:06;;;;;;;0.70;0.70;;;5.30;84.90;;;;;;5028598;28;20040;-79
2023/01/16 02:24:56;;;;;;;0.95;0.77;;;5.30;83.50;;;;;;5028460;28;20040;-79
2023/01/16 02:27:22;;;;;;;1.63;1.33;;;;;;;;;;5028070;28;20021;-78
2023/01/16 02:30:04;;;;;;;2.05;0.70;;;5.20;86.70;;;;;;5024148;28;20121;-78
2023/01/16 02:32:30;;;;;;;3.08;2.97;;;;;;;;;;5026417;28;20060;-78
2023/01/16 02:35:33;;;;;;;1.42;0.75;;;5.40;83.40;;;;;;5023985;28;20026;-79
2023/01/16 02:38:12;;;;;;;0.60;0.60;;;5.40;85.90;;;;;;5025003;28;20040;-78
2023/01/16 02:40:43;;;;;;;3.60;1.52;;;5.50;90.90;;;;;;5027924;28;20514;-78
2023/01/16 02:43:29;;;;;;;0.88;0.88;;;5.50;86.30;;;;;;5027299;28;20064;-78
2023/01/16 02:45:55;;;;;;;4.63;0.60;;;;;;;;;;5037804;28;20103;-79
2023/01/16 02:48:31;;;;;;;0.80;0.80;;;5.60;81.80;;;;;;5028067;28;20465;-78
2023/01/16 02:50:57;;;;;;;0.50;0.50;;;;;;;;;;5026075;28;20025;-78
2023/01/16 02:53:31;;;;;;;0.77;0.73;;;5.70;80.60;;;;;;5027962;28;20060;-79
2023/01/16 02:56:03;;;;;;;1.25;1.25;;;5.90;79.50;;;;;;5027680;28;20021;-78
2023/01/16 02:58:32;;;;;;;0.80;0.80;;;5.80;79.50;;;;;;5027742;28;20761;-78
2023/01/16 03:00:59;;;;;;;1.05;1.05;;;5.90;78.50;;;;;;5022041;28;20441;-79
2023/01/16 03:03:34;;;;;;;;;;;6.20;79.20;;;;;;5020039;28;20029;-79
2023/01/16 03:06:09;;;;;;;6.80;2.05;;;6.00;76.80;;;;;;5027682;28;19905;-78
2023/01/16 03:09:01;;;;;;;0.60;0.60;;;6.10;77.20;;;;;;5027530;28;20029;-79
2023/01/16 03:11:29;;;;;;;1.05;0.70;;;6.20;77.60;;;;;;5027203;28;20099;-78
2023/01/16 03:14:18;;;;;;;0.85;0.85;;;7.30;78.10;;;;;;5026304;28;20105;-78
2023/01/16 03:16:54;;;;;;;0.65;0.65;;;6.00;76.90;;;;;;5027286;28;20060;-78
2023/01/16 03:19:25;;;;;;;2.85;0.90;;;6.10;91.90;;;;;;5027417;28;20026;-79
2023/01/16 03:21:51;;;;;;;0.60;0.60;;;;;;;;;;5027368;28;20018;-79
2023/01/16 03:24:49;;;;;;;0.40;0.40;;;6.10;76.40;;;;;;5027432;28;20035;-79
2023/01/16 03:27:29;;;;;;;0.80;0.80;;;9.50;78.10;;;;;;5015059;28;20029;-79
2023/01/16 03:30:18;;;;;;;0.60;0.60;;;6.10;75.50;;;;;;5027155;28;20115;-79
2023/01/16 03:32:56;;;;;;;0.40;0.40;;;6.10;75.60;;;;;;5027079;28;20044;-79
2023/01/16 03:35:31;;;;;;;0.90;0.90;;;6.20;82.90;;;;;;5027550;28;20029;-79
2023/01/16 03:38:02;;;;;;;1.25;1.25;;;5.90;91.50;;;;;;5027258;28;20102;-79
2023/01/16 03:40:32;;;;;;;1.00;1.00;;;6.30;74.50;;;;;;5027061;28;20068;-80
2023/01/16 03:43:18;;;;;;;0.50;0.50;;;6.10;74.60;;;;;;5026980;28;20534;-79
2023/01/16 03:45:56;;;;;;;0.80;0.80;;;6.10;74.10;;;;;;5027058;28;20857;-80
2023/01/16 03:48:31;;;;;;;1.25;1.25;;;6.40;85.40;;;;;;5015793;28;20031;-80
2023/01/16 03:51:03;;;;;;;0.50;0.50;;;6.20;73.70;;;;;;5026899;28;20025;-80
2023/01/16 03:53:44;;;;;;;0.70;0.70;;;6.90;73.10;;;;;;5034379;28;20516;-79
2023/01/16 03:56:19;;;;;;;0.40;0.40;;;6.80;83.10;;;;;;5027615;28;20033;-79
2023/01/16 03:58:47;;;;;;;1.25;1.25;;;6.30;78.50;;;;;;5026682;28;20029;-79
2023/01/16 04:01:45;;;;;;;0.55;0.55;;;6.30;72.80;;;;;;5014487;28;20474;-79
2023/01/16 04:04:32;;;;;;;0.40;0.40;;;6.20;86.30;;;;;;5026956;28;20029;-79
2023/01/16 04:06:57;;;;;;;0.60;0.60;;;6.20;83.20;;;;;;5027531;28;20030;-79
2023/01/16 04:09:43;;;;;;;0.95;0.95;;;6.40;71.40;;;;;;5027819;28;20690;-78
2023/01/16 04:12:12;;;;;;;1.00;1.00;;;6.40;71.60;;;;;;5027354;28;20041;-77
2023/01/16 04:14:39;;;;;;;0.50;0.50;;;6.30;76.00;;;;;;5029902;28;20728;-78
2023/01/16 04:17:06;;;;;;;0.55;0.55;;;6.30;71.70;;;;;;5031032;28;20029;-78
2023/01/16 04:19:33;;;;;;;0.65;0.65;;;6.50;83.10;;;;;;5031131;28;20053;-78
2023/01/16 04:21:59;;;;;;;1.50;1.50;;;;;;;;;;5031106;28;20028;-78
2023/01/16 04:24:25;;;;;;;0.50;0.50;;;;;;;;;;5031335;28;20083;-77
2023/01/16 04:26:51;;;;;;;1.08;1.08;;;;;;;;;;5030420;28;20018;-77
2023/01/16 04:29:17;;;;;;;1.88;1.80;;;;;;;;;;5030991;28;20041;-78
2023/01/16 04:31:43;;;;;;;0.60;0.60;;;;;;;;;;5030500;28;20387;-79
2023/01/16 04:34:09;;;;;;;0.70;0.70;;;;;;;;;;5030507;28;20021;-78
2023/01/16 04:36:35;;;;;;;0.50;0.50;;;;;;;;;;5030332;28;20028;-78
2023/01/16 04:39:01;;;;;;;0.30;0.30;;;;;;;;;;5030856;28;20026;-78
2023/01/16 04:41:37;;;;;;;0.60;0.60;;;;;;;;;;5030165;28;20028;-77
2023/01/16 04:44:05;;;;;;;0.40;0.40;;;7.10;65.40;;;;;;5030165;28;20033;-78
2023/01/16 04:46:31;;;;;;;0.65;0.50;;;;;;;;;;5030048;28;20049;-78
2023/01/16 04:48:57;;;;;;;1.73;0.73;;;;;;;;;;5030235;28;20102;-78
2023/01/16 04:51:23;;;;;;;0.75;0.75;;;7.30;63.90;;;;;;5029882;28;20121;-77
2023/01/16 04:53:49;;;;;;;0.45;0.45;;;;;;;;;;5030301;28;20033;-78
2023/01/16 04:56:15;;;;;;;0.50;0.50;;;;;;;;;;5029525;28;20030;-78
2023/01/16 04:58:41;;;;;;;2.20;1.05;;;;;;;;;;5030048;28;20079;-78
2023/01/16 05:01:07;;;;;;;0.60;0.60;;;;;;;;;;5029788;28;20029;-78
2023/01/16 05:03:33;;;;;;;1.08;1.08;;;;;;;;;;5029786;28;20030;-78
2023/01/16 05:05:59;;;;;;;0.40;0.40;;;;;;;;;;5029738;28;20509;-77
2023/01/16 05:08:27;;;;;;;0.90;0.90;;;;;;;;;;5030187;28;20021;-77
2023/01/16 05:10:53;;;;;;;5.70;1.35;;;7.40;62.90;;;;;;5029107;28;20029;-83
2023/01/16 05:13:19;;;;;;;0.90;0.90;;;;;;;;;;5029434;28;20100;-79
2023/01/16 05:15:45;;;;;;;0.77;0.77;;;;;;;;;;5028336;28;20613;-75
2023/01/16 05:18:12;;;;;;;8.27;0.98;;;7.40;63.60;;;;;;5030017;28;20116;-77
2023/01/16 05:20:39;;;;;;;0.40;0.40;;;7.40;82.90;;;;;;5029788;28;20558;-78
2023/01/16 05:23:05;;;;;;;1.65;1.63;;;;;;;;;;5029780;28;20343;-80
2023/01/16 05:25:31;;;;;;;1.90;1.75;;;;;;;;;;5028666;28;20033;-77
2023/01/16 05:27:57;;;;;;;0.60;0.60;;;;;;;;;;5029710;28;20036;-75
2023/01/16 05:30:23;;;;;;;2.85;0.93;;;;;;;;;;5029547;28;20037;-79
2023/01/16 05:32:49;;;;;;;2.28;0.60;;;7.10;78.50;;;;;;5029156;28;20072;-77
2023/01/16 05:35:15;;;;;;;0.75;0.70;;;;;;;;;;5029196;28;20135;-77
2023/01/16 05:37:42;;;;;;;0.80;0.77;;;7.10;69.60;;;;;;5029352;28;20025;-74
2023/01/16 05:40:09;;;;;;;0.50;0.50;;;7.30;73.70;;;;;;5016307;28;20018;-75
2023/01/16 05:42:35;;;;;;;0.57;0.57;;;;;;;;;;5027516;28;20044;-75
2023/01/16 05:45:01;;;;;;;1.10;1.10;;;;;;;;;;5028967;28;20042;-78
2023/01/16 05:47:27;;;;;;;3.75;1.42;;;;;;;;;;5028681;28;20033;-74
2023/01/16 05:49:53;;;;;;;1.73;1.63;;;;;;;;;;5028992;28;20096;-75
2023/01/16 05:52:19;;;;;;;0.50;0.50;;;;;;;;;;5028696;28;20041;-75
2023/01/16 05:54:45;;;;;;;0.73;0.73;;;;;;;;;;5028798;28;20049;-75
2023/01/16 05:57:12;;;;;;;0.73;0.73;;;;;;;;;;5031065;28;20022;-75
2023/01/16 05:59:38;;;;;;;4.38;0.70;;;6.20;88.90;;;;;;5029191;28;20559;-74
2023/01/16 06:02:04;;;;;;;0.77;0.77;;;;;;;;;;5028662;28;20061;-74
2023/01/16 06:04:30;;;;;;;0.50;0.50;;;;;;;;;;5027213;28;20112;-74
2023/01/16 06:06:56;;;;;;;0.70;0.70;;;;;;;;;;5020598;28;20380;-74
2023/01/16 06:09:22;;;;;;;1.05;1.05;;;;;;;;;;5027103;28;20032;-74
2023/01/16 06:11:48;;;;;;;1.48;1.48;;;5.90;91.00;;;;;;5013758;28;20025;-74
2023/01/16 06:14:14;;;;;;;0.98;0.90;;;;;;;;;;5027572;28;20021;-75
2023/01/16 06:16:40;;;;;;;2.58;2.47;;;;;;;;;;5027942;28;20516;-76
2023/01/16 06:19:06;;;;;;;1.23;1.23;;;;;;;;;;5027796;28;20566;-76
2023/01/16 06:21:32;;;;;;;0.68;0.68;;;;;;;;;;5018992;28;20026;-75
2023/01/16 06:23:58;;;;;;;0.60;0.60;;;5.90;99.10;;;;;;5024284;28;20411;-75
2023/01/16 06:26:24;;;;;;;0.60;0.60;;;;;;;;;;5025736;28;20029;-75
2023/01/16 06:28:50;;;;;;;0.70;0.65;;;;;;;;;;5016848;28;20553;-76
2023/01/16 06:31:16;;;;;;;1.40;0.80;;;;;;;;;;5018766;28;20028;-76
2023/01/16 06:33:42;;;;;;;4.35;2.00;;;;;;;;;;5020947;28;20068;-75
2023/01/16 06:36:08;;;;;;;0.60;0.60;;;;;;;;;;5025137;28;20021;-76
2023/01/16 06:38:34;;;;;;;0.90;0.90;;;5.60;94.30;;;;;;5022652;28;20021;-76
2023/01/16 06:40:59;;;;;;;0.70;0.70;;;5.70;99.90;;;;;;5020461;28;20018;-76
2023/01/16 06:43:26;;;;;;;0.85;0.60;;;;;;;;;;5023322;28;20029;-78
2023/01/16 06:45:53;;;;;;;0.60;0.60;;;5.70;99.20;;;;;;5022682;28;20140;-79
2023/01/16 06:48:19;;;;;;;1.20;1.20;;;5.80;91.10;;;;;;5017488;28;20522;-76
2023/01/16 06:50:45;;;;;;;0.43;0.43;;;;;;;;;;5017837;28;20049;-77
2023/01/16 06:53:11;;;;;;;3.40;3.30;;;5.90;90.00;;;;;;5016769;28;20594;-80
2023/01/16 07:08:26;;;;;;;0.70;0.70;;;;;;;;;;5105403;27;20380;-73
2023/01/16 07:10:51;;;;;;;1.58;1.58;;;6.50;95.90;;;;;;5089230;28;20517;-73
2023/01/16 07:13:22;;;;;;;1.10;1.10;;;;;;;;;;5085837;28;20028;-73
2023/01/16 07:24:08;;;;;;;2.15;2.05;;;6.40;83.70;;;;;;5102488;28;20709;-74
2023/01/16 07:26:38;;;;;;;0.90;0.90;;;6.30;79.90;;;;;;5103958;28;20024;-72
2023/01/16 07:29:04;;;;;;;0.80;0.80;;;;;;;;;;5096069;28;20031;-74
2023/01/16 07:31:32;;;;;;;0.82;0.82;;;6.40;78.50;;;;;;5083863;28;20538;-73
2023/01/16 07:33:58;;;;;;;0.80;0.80;;;;;;;;;;5084325;28;20035;-72
2023/01/16 07:36:24;;;;;;;0.98;0.98;;;;;;;;;;5083699;28;20429;-71
2023/01/16 07:38:50;;;;;;;2.75;1.00;;;;;;;;;;5084558;28;20024;-73
2023/01/16 07:41:16;;;;;;;2.38;2.30;;;;;;;;;;5102484;28;20032;-72
2023/01/16 07:43:42;;;;;;;0.77;0.77;;;6.30;95.80;;;;;;5098911;28;20065;-74
2023/01/16 07:46:08;;;;;;;1.27;0.73;;;6.40;95.90;;;;;;5100225;28;20032;-72
2023/01/16 07:48:34;;;;;;;0.73;0.73;;;6.40;96.40;;;;;;5100061;28;20613;-73
2023/01/16 07:51:00;;;;;;;0.75;0.75;;;6.30;96.50;;;;;;5101827;28;20036;-74
2023/01/16 07:53:28;;;;;;;1.45;1.38;;;;;;;;;;5099451;28;20020;-73
2023/01/16 07:55:55;;;;;;;0.88;0.88;;;;;;;;;;5101808;28;20038;-73
2023/01/16 07:58:21;;;;;;;2.72;1.00;;;;;;;;;;5099057;28;20020;-73
2023/01/16 08:00:48;;;;;;;0.80;0.80;;;6.30;85.70;;;;;;5101189;28;20032;-73
2023/01/16 08:03:15;;;;;;;0.70;0.70;;;;;;;;;;5086521;28;20123;-74
2023/01/16 08:05:43;;;;;;;11.57;2.67;;;;;;;;;;5101335;28;20063;-73
2023/01/16 08:08:09;;;;;;;0.70;0.70;;;;;;;;;;5078994;28;20530;-73
2023/01/16 08:10:35;;;;;;;0.80;0.80;;;;;;;;;;5068451;28;20017;-74
2023/01/16 08:13:01;;;;;;;0.70;0.70;;;;;;;;;;5059947;28;20681;-72
2023/01/16 08:15:27;;;;;;;0.70;0.70;;;;;;;;;;5081768;28;20040;-72
2023/01/16 08:17:53;;;;;;;0.93;0.93;;;;;;;;;;5084803;28;20029;-73
2023/01/16 08:20:19;;;;;;;0.75;0.75;;;;;;;;;;5087326;28;20032;-72
2023/01/16 08:22:46;;;;;;;0.70;0.70;;;;;;;;;;5088158;28;20046;-73
2023/01/16 08:25:13;;;;;;;1.00;1.00;;;7.00;90.40;;;;;;5079333;28;20013;-73
2023/01/16 08:27:40;;;;;;;0.88;0.88;;;6.50;80.50;;;;;;5081664;28;20029;-72
2023/01/16 08:30:06;;;;;;;0.80;0.80;;;;;;;;;;5089238;28;20028;-72
2023/01/16 08:32:32;;;;;;;0.90;0.90;;;7.00;94.70;;;;;;5087932;28;20020;-72
2023/01/16 08:34:58;;;;;;;0.73;0.73;;;;;;;;;;5089703;28;20059;-72
2023/01/16 08:37:23;;;;;;;1.23;1.23;;;7.50;92.90;;;;;;5077359;28;20032;-72
2023/01/16 08:39:49;;;;;;;1.40;1.40;;;8.10;85.60;;;;;;5089348;28;20031;-72
2023/01/16 08:53:13;;;;;;;0.70;0.70;;;;;;;;;;5088021;28;20034;-72
2023/01/16 08:55:39;;;;;;;0.82;0.82;;;;;;;;;;5088815;28;20028;-72
2023/01/16 08:58:05;;;;;;;1.40;1.40;;;9.80;78.80;;;;;;5079361;28;20082;-73
2023/01/16 09:00:32;;;;;;;1.25;1.25;;;;;;;;;;5072560;28;20043;-72
2023/01/16 09:02:59;;;;;;;0.70;0.70;;;;;;;;;;5078647;28;20083;-74
2023/01/16 09:05:25;;;;;;;3.72;2.05;;;;;;;;;;5076493;28;20016;-74
2023/01/16 09:07:51;;;;;;;0.60;0.60;;;;;;;;;;5076079;28;20054;-73
2023/01/16 09:10:17;;;;;;;3.83;1.05;;;12.50;51.10;;;;;;5069122;28;20070;-73
2023/01/16 09:15:28;;;;;;;0.50;0.50;;;;;;;;;;5066765;28;20555;-73
2023/01/16 09:17:54;;;;;;;0.60;0.60;;;;;;;;;;5088229;28;20618;-72
2023/01/16 09:20:20;;;;;;;0.75;0.75;;;13.50;65.20;;;;;;5088305;28;20020;-73
2023/01/16 09:22:46;;;;;;;0.50;0.50;;;;;;;;;;5088715;28;20040;-73
2023/01/16 09:25:12;;;;;;;0.50;0.50;;;;;;;;;;5089110;28;20055;-73
2023/01/16 09:27:37;;;;;;;0.50;0.50;;;11.60;59.20;;;;;;5086532;28;20461;-73
2023/01/16 09:30:04;;;;;;;0.68;0.68;;;11.30;62.40;;;;;;5068807;28;20024;-72
2023/01/16 09:32:30;;;;;;;0.50;0.50;;;11.30;64.30;;;;;;5068576;28;20016;-74
2023/01/16 09:34:56;;;;;;;0.60;0.60;;;;;;;;;;5068791;28;20037;-73
2023/01/16 09:37:22;;;;;;;1.75;1.65;;;;;;;;;;5068609;28;20032;-73
2023/01/16 09:39:48;;;;;;;1.67;0.75;;;11.30;71.90;;;;;;5068629;28;20024;-75
2023/01/16 09:45:21;;;;;;;0.77;0.77;;;10.20;74.50;;;;;;5068463;28;20431;-73
2023/01/16 09:47:50;;;;;;;2.20;2.10;;;15.70;51.50;;;;;;5067136;28;20035;-73
2023/01/16 09:50:39;;;;;;;0.60;0.60;;;16.60;43.40;;;;;;5083214;28;20024;-73
2023/01/16 09:58:47;;;;;;;0.57;0.50;;;14.90;45.00;;;;;;5023677;28;20684;-74
2023/01/16 10:01:22;;;;;;;1.58;1.02;;;13.90;45.30;;;;;;5024529;28;20025;-74
2023/01/16 10:03:48;;;;;;;0.50;0.50;;;13.00;54.70;;;;;;5006711;28;20037;-73
2023/01/16 10:06:22;;;;;;;0.52;0.52;;;12.90;65.80;;;;;;5022494;28;20103;-75
2023/01/16 10:09:19;;;;;;;0.63;0.60;;;12.00;66.80;;;;;;5012283;28;20088;-75
2023/01/16 10:11:57;;;;;;;;;;;12.10;49.10;;;;;;5025157;28;20030;-77
2023/01/16 10:14:53;;;;;;;0.93;0.80;;;11.60;64.70;;;;;;5024950;28;20441;-76
2023/01/16 10:17:30;;;;;;;0.70;0.70;;;11.70;50.20;;;;;;5011774;28;20107;-74
2023/01/16 10:20:18;;;;;;;0.43;0.43;;;11.60;50.00;;;;;;5019712;28;20137;-75
2023/01/16 10:23:11;;;;;;;0.60;0.60;;;11.60;64.70;;;;;;5005321;28;20131;-75
2023/01/16 10:26:03;;;;;;;0.70;0.70;;;11.10;53.10;;;;;;5004779;28;20117;-75
2023/01/16 10:28:43;;;;;;;0.70;0.70;;;11.50;63.70;;;;;;4994919;28;20109;-74
2023/01/16 10:31:20;;;;;;;1.23;1.13;;;11.30;51.30;;;;;;5061906;28;20610;-74
2023/01/16 10:34:01;;;;;;;1.80;0.80;;;11.00;51.70;;;;;;5068211;28;20043;-75
2023/01/16 10:36:31;;;;;;;0.90;0.90;;;11.00;52.30;;;;;;5055411;28;20032;-75
2023/01/16 10:38:59;;;;;;;0.60;0.60;;;10.50;53.50;;;;;;5068659;28;20458;-75
2023/01/16 10:50:26;;;;;;;0.80;0.80;;;;;;;;;;5057573;28;20647;-75
2023/01/16 10:52:52;;;;;;;3.10;1.08;;;10.00;77.90;;;;;;5067858;28;20074;-74
2023/01/16 10:55:18;;;;;;;0.95;0.95;;;10.70;67.50;;;;;;5069030;28;20020;-74
2023/01/16 10:57:55;;;;;;;0.73;0.73;;;10.90;73.40;;;;;;5066982;28;20044;-74
2023/01/16 11:00:31;;;;;;;1.17;1.08;;;11.00;62.90;;;;;;5069844;28;20024;-75
2023/01/16 11:03:14;;;;;;;1.20;0.80;;;11.10;66.20;;;;;;5068345;28;20386;-74
2023/01/16 11:05:40;;;;;;;1.23;0.80;;;;;;;;;;5055816;28;20034;-75
2023/01/16 11:08:07;;;;;;;0.65;0.65;;;;;;;;;;5067231;28;20057;-74
2023/01/16 11:10:32;;;;;;;0.85;0.82;;;10.50;75.90;;;;;;5087127;28;20016;-74
2023/01/16 11:18:28;;;;;;;0.45;0.45;;;10.20;56.60;;;;;;5086930;28;20022;-73
2023/01/16 11:18:52;;;;;;;0.70;0.63;;;10.40;76.20;;;;;;5057364;28;20051;-74
2023/01/16 11:21:28;;;;;;;0.60;0.60;;;9.90;75.40;;;;;;5065461;28;20916;-74
2023/01/16 11:24:15;;;;;;;0.77;0.77;;;10.10;59.30;;;;;;5067403;28;20039;-74
2023/01/16 11:26:43;;;;;;;1.20;0.73;;;;;;;;;;5067303;28;20032;-74
2023/01/16 11:29:16;;;;;;;0.60;0.60;;;10.00;56.60;;;;;;5067572;28;20021;-74
2023/01/16 11:31:42;;;;;;;1.17;1.17;;;;;;;;;;5067434;28;20025;-73
2023/01/16 11:34:14;;;;;;;0.60;0.60;;;9.40;58.30;;;;;;5068080;28;20036;-73
2023/01/16 11:36:41;;;;;;;0.93;0.93;;;9.10;61.00;;;;;;5067024;28;20209;-74
2023/01/16 11:39:20;;;;;;;2.33;1.02;;;8.80;62.50;;;;;;5067873;28;20032;-74
2023/01/16 11:41:49;;;;;;;0.98;0.90;;;8.80;62.80;;;;;;5067254;28;20029;-74
2023/01/16 11:47:05;;;;;;;2.58;1.83;;;8.60;69.40;;;;;;5071147;28;20075;-74
2023/01/16 11:49:38;;;;;;;5.43;3.10;;;8.70;64.50;;;;;;5069557;28;20577;-73
2023/01/16 11:52:04;;;;;;;7.10;4.32;;;8.80;84.90;;;;;;5072587;28;20073;-73
2023/01/16 11:54:32;;;;;;;1.55;1.45;;;8.80;64.70;;;;;;5081084;28;20272;-73
2023/01/16 11:56:58;;;;;;;2.17;0.90;;;8.90;85.50;;;;;;5086217;28;20057;-73
2023/01/16 11:59:24;;;;;;;9.00;2.35;;;8.90;83.50;;;;;;5090205;28;20020;-74
2023/01/16 12:02:19;;;;;;;3.20;1.05;;;8.60;67.10;;;;;;5089289;28;20020;-74
2023/01/16 12:07:53;;;;;;;6.03;3.50;;;;;;;;;;5077189;28;20059;-74
2023/01/16 12:10:40;;;;;;;5.60;2.80;;;8.80;82.40;;;;;;5089013;28;20020;-74
2023/01/16 12:16:27;;;;;;;12.07;3.40;;;9.40;64.90;;;;;;5070874;28;20089;-73
2023/01/16 12:19:28;;;;;;;10.07;4.97;;;9.70;83.60;;;;;;5059784;28;20520;-74
2023/01/16 12:22:25;;;;;;;26.67;6.00;;;10.00;63.10;;;;;;5007883;28;20409;-73
2023/01/16 12:25:01;;;;;;;9.98;3.85;;;10.10;62.10;;;;;;5000263;28;20063;-74
2023/01/16 12:27:48;;;;;;;4.50;2.42;;;9.90;62.60;;;;;;5007229;28;20492;-74
2023/01/16 12:30:19;;;;;;;3.40;2.13;;;9.70;63.00;;;;;;5007723;28;20141;-74
2023/01/16 12:32:59;;;;;;;1.65;1.02;;;9.90;82.70;;;;;;5004366;28;20026;-73
2023/01/16 12:35:28;;;;;;;6.10;2.58;;;;;;;;;;5007423;28;20033;-74
2023/01/16 12:38:14;;;;;;;2.63;1.33;;;9.00;68.00;;;;;;5007839;28;20042;-74
2023/01/16 12:40:40;;;;;;;3.20;1.80;;;;;;;;;;5008152;28;20084;-74
2023/01/16 12:43:24;;;;;;;0.95;0.88;;;8.90;64.70;;;;;;5007756;28;20116;-74
2023/01/16 12:45:50;;;;;;;2.38;1.40;;;;;;;;;;5007781;28;20038;-74
2023/01/16 12:48:16;;;;;;;1.42;0.80;;;;;;;;;;5007363;28;20080;-74
2023/01/16 12:51:04;;;;;;;8.18;2.70;;;8.50;86.80;;;;;;5007556;28;20423;-73
2023/01/16 12:54:03;;;;;;;4.43;2.03;;;8.10;67.90;;;;;;4948911;28;20066;-73
2023/01/16 12:57:06;;;;;;;1.13;1.10;;;7.90;86.70;;;;;;4948550;28;20047;-75
2023/01/16 13:00:01;;;;;;;1.30;1.20;;;8.30;67.50;;;;;;5002760;28;21191;-75
2023/01/16 13:02:47;;;;;;;0.80;0.80;;;8.70;68.60;;;;;;5009156;28;20515;-76
2023/01/16 13:05:19;;;;;;;0.85;0.85;;;8.40;87.80;;;;;;5026414;28;20458;-74
2023/01/16 13:07:54;;;;;;;1.67;0.85;;;8.70;77.70;;;;;;5026858;28;20045;-75
2023/01/16 13:13:24;;;;;;;0.98;0.77;;;8.20;87.20;;;;;;5026125;28;20115;-74
2023/01/16 13:16:07;;;;;;;0.63;0.63;;;8.30;87.80;;;;;;5037632;28;20033;-74
2023/01/16 13:18:33;;;;;;;0.80;0.80;;;;;;;;;;5020431;28;20049;-74
2023/01/16 13:21:03;;;;;;;0.88;0.88;;;8.50;72.90;;;;;;5045073;28;20515;-73
2023/01/16 13:23:50;;;;;;;1.83;1.00;;;8.70;67.20;;;;;;5045703;28;20076;-73
2023/01/16 13:26:17;;;;;;;1.98;1.00;;;8.60;66.70;;;;;;5044650;28;20142;-74
2023/01/16 13:28:47;;;;;;;2.50;0.80;;;;;;;;;;5045565;28;20044;-73
2023/01/16 13:31:32;;;;;;;0.93;0.63;;;8.60;66.70;;;;;;5077984;28;20122;-74
2023/01/16 13:34:24;;;;;;;0.80;0.80;;;8.60;66.60;;;;;;5072341;28;20402;-74
2023/01/16 13:37:13;;;;;;;0.82;0.82;;;8.70;86.70;;;;;;5068793;28;20067;-73
2023/01/16 13:39:52;;;;;;;0.60;0.60;;;8.60;66.80;;;;;;5068787;28;20082;-73
2023/01/16 13:42:21;;;;;;;1.95;1.45;;;8.50;66.60;;;;;;5071057;28;20029;-74
2023/01/16 13:47:39;;;;;;;3.92;0.88;;;8.30;66.70;;;;;;5068306;28;20162;-73
2023/01/16 13:50:17;;;;;;;2.15;0.80;;;8.20;67.10;;;;;;5068091;28;20032;-73
2023/01/16 13:52:43;;;;;;;;;;;8.20;67.50;;;;;;5057531;28;20028;-73
2023/01/16 13:55:34;;;;;;;0.80;0.80;;;8.10;68.10;;;;;;5067755;28;19909;-72
2023/01/16 13:58:20;;;;;;;1.25;0.90;;;8.20;68.30;;;;;;5067826;28;20075;-73
2023/01/16 14:00:46;;;;;;;0.90;0.90;;;8.80;79.10;;;;;;5056571;28;20028;-73
2023/01/16 14:03:24;;;;;;;2.67;1.23;;;8.40;68.00;;;;;;5068672;28;20049;-72
2023/01/16 14:06:09;;;;;;;1.13;1.00;;;8.80;88.10;;;;;;5068283;28;20028;-73
2023/01/16 14:09:07;;;;;;;0.90;0.90;;;8.60;67.80;;;;;;5068410;28;20051;-73
2023/01/16 14:11:34;;;;;;;2.10;1.17;;;8.70;85.10;;;;;;5067343;28;20027;-72
2023/01/16 14:17:30;;;;;;;1.35;1.25;;;8.60;80.10;;;;;;5005784;28;20129;-73
2023/01/16 14:20:23;;;;;;;4.60;1.45;;;8.80;68.20;;;;;;5022722;28;20083;-75
2023/01/16 14:25:37;;;;;;;3.55;1.45;;;9.00;67.40;;;;;;5024788;28;20518;-73
2023/01/16 14:28:03;;;;;;;1.13;1.02;;;9.10;69.70;;;;;;5012038;28;20091;-72
2023/01/16 14:30:32;;;;;;;4.45;2.35;;;8.70;78.90;;;;;;5024665;28;20043;-73
2023/01/16 14:32:59;;;;;;;1.33;0.80;;;;;;;;;;5023747;28;20053;-72
2023/01/16 14:35:50;;;;;;;0.85;0.85;;;8.80;67.60;;;;;;5024678;28;20560;-72
2023/01/16 14:38:21;;;;;;;2.58;1.55;;;8.50;70.10;;;;;;5024120;28;20045;-74
2023/01/16 14:56:33;;;;;;;1.50;1.25;;;8.10;67.70;;;;;;5032104;28;20604;-73
2023/01/16 14:59:11;;;;;;;1.85;1.10;;;7.80;71.60;;;;;;5031753;28;20033;-74
2023/01/16 15:05:04;;;;;;;6.78;2.53;;;8.00;69.50;;;;;;5016770;28;20080;-75
2023/01/16 15:07:43;;;;;;;5.45;3.63;;;8.10;69.60;;;;;;4972366;28;20132;-74
2023/01/16 15:10:15;;;;;;;7.93;2.92;;;8.00;90.10;;;;;;4956746;28;20034;-75
2023/01/16 15:12:42;;;;;;;15.02;3.63;;;8.20;77.00;;;;;;4978452;28;20093;-74
2023/01/16 15:15:28;;;;;;;0.90;0.90;;;7.70;72.30;;;;;;4976127;28;20031;-74
2023/01/16 15:23:36;;;;;;;1.35;1.25;;;7.80;71.40;;;;;;4969312;28;20615;-75
2023/01/16 15:26:04;;;;;;;1.35;1.10;;;7.80;76.60;;;;;;4967645;28;20043;-74
2023/01/16 15:28:58;;;;;;;2.58;1.05;;;7.70;81.80;;;;;;4976100;28;20089;-74
2023/01/16 15:31:28;;;;;;;4.63;1.33;;;;;;;;;;5031603;28;20033;-75
2023/01/16 15:34:18;;;;;;;1.33;1.15;;;;;;;;;;5030516;28;20022;-75
2023/01/16 15:36:48;;;;;;;3.35;1.40;;;7.50;74.00;;;;;;5030177;28;20036;-74
2023/01/16 15:39:33;;;;;;;1.30;1.23;;;;;;;;;;5033800;28;20505;-75
2023/01/16 15:48:20;;;;;;;1.33;1.27;;;7.40;70.50;;;;;;5035993;28;20036;-72
2023/01/16 15:51:04;;;;;;;1.35;1.30;;;7.30;70.20;;;;;;5029847;28;20045;-73